createdAt,value
2017-04-29T00:01:20.128Z,0
2017-04-29T00:02:42.231Z,0
2017-04-29T00:04:03.435Z,0
2017-04-29T00:05:25.589Z,0
2017-04-29T00:06:47.775Z,0
2017-04-29T00:08:09.860Z,0
2017-04-29T00:09:31.710Z,0
2017-04-29T00:10:53.254Z,0
2017-04-29T00:12:15.090Z,0
2017-04-29T00:13:37.591Z,0
2017-04-29T00:14:59.811Z,0
2017-04-29T00:16:22.270Z,0
2017-04-29T00:17:43.443Z,0
2017-04-29T00:19:05.885Z,0
2017-04-29T00:20:28.028Z,0
2017-04-29T00:21:49.848Z,0
2017-04-29T00:23:12.325Z,0
2017-04-29T00:24:35.021Z,0
2017-04-29T00:25:56.580Z,0
2017-04-29T00:27:18.397Z,0
2017-04-29T00:28:40.661Z,0
2017-04-29T00:30:02.764Z,0
2017-04-29T00:31:24.921Z,0
2017-04-29T00:32:46.751Z,0
2017-04-29T00:34:08.633Z,0
2017-04-29T00:35:31.008Z,0
2017-04-29T00:36:53.544Z,0
2017-04-29T00:38:15.697Z,0
2017-04-29T00:39:37.921Z,0
2017-04-29T00:40:59.811Z,0
2017-04-29T00:42:21.963Z,0
2017-04-29T00:43:43.149Z,0
2017-04-29T00:45:04.341Z,0
2017-04-29T00:46:26.110Z,0
2017-04-29T00:47:48.328Z,0
2017-04-29T00:49:10.508Z,0
2017-04-29T00:50:32.392Z,0
2017-04-29T00:51:54.971Z,0
2017-04-29T00:53:17.434Z,0
2017-04-29T00:54:39.253Z,0
2017-04-29T00:56:00.760Z,0
2017-04-29T00:57:23.150Z,0
2017-04-29T00:58:44.660Z,0
2017-04-29T01:00:06.502Z,0
2017-04-29T01:01:28.663Z,0
2017-04-29T01:02:50.749Z,0
2017-04-29T01:04:12.977Z,0
2017-04-29T01:05:34.806Z,0
2017-04-29T01:06:56.951Z,0
2017-04-29T01:08:18.775Z,0
2017-04-29T01:09:40.600Z,0
2017-04-29T01:11:02.428Z,0
2017-04-29T01:12:24.291Z,0
2017-04-29T01:13:46.806Z,0
2017-04-29T01:15:08.348Z,0
2017-04-29T01:16:30.536Z,0
2017-04-29T01:17:51.715Z,0
2017-04-29T01:19:13.475Z,0
2017-04-29T01:20:35.002Z,0
2017-04-29T01:21:56.859Z,0
2017-04-29T01:23:19.025Z,0
2017-04-29T01:24:41.766Z,0
2017-04-29T01:26:03.606Z,0
2017-04-29T01:27:25.416Z,0
2017-04-29T01:28:46.940Z,0
2017-04-29T01:30:09.071Z,0
2017-04-29T01:31:30.882Z,0
2017-04-29T01:32:52.419Z,0
2017-04-29T01:34:14.320Z,0
2017-04-29T01:35:36.710Z,0
2017-04-29T01:36:58.531Z,0
2017-04-29T01:38:20.176Z,0
2017-04-29T01:39:42.008Z,0
2017-04-29T01:41:04.453Z,0
2017-04-29T01:42:26.921Z,0
2017-04-29T01:43:48.119Z,0
2017-04-29T01:45:10.046Z,0
2017-04-29T01:46:32.273Z,0
2017-04-29T01:47:54.820Z,0
2017-04-29T01:49:16.037Z,0
2017-04-29T01:50:37.861Z,0
2017-04-29T01:51:59.923Z,0
2017-04-29T01:53:22.399Z,0
2017-04-29T01:54:44.544Z,0
2017-04-29T01:56:06.755Z,0
2017-04-29T01:57:29.461Z,0
2017-04-29T01:58:51.285Z,0
2017-04-29T02:00:13.422Z,0
2017-04-29T02:01:34.930Z,0
2017-04-29T02:02:57.053Z,0
2017-04-29T02:04:19.525Z,0
2017-04-29T02:05:41.363Z,0
2017-04-29T02:07:03.507Z,0
2017-04-29T02:08:26.221Z,0
2017-04-29T02:09:47.729Z,0
2017-04-29T02:11:09.243Z,0
2017-04-29T02:12:31.384Z,0
2017-04-29T02:13:53.902Z,0
2017-04-29T02:15:16.569Z,0
2017-04-29T02:16:38.697Z,0
2017-04-29T02:18:00.210Z,0
2017-04-29T02:19:22.590Z,0
2017-04-29T02:20:44.728Z,0
2017-04-29T02:22:06.878Z,0
2017-04-29T02:23:28.410Z,0
2017-04-29T02:24:50.858Z,0
2017-04-29T02:26:13.030Z,0
2017-04-29T02:27:35.230Z,0
2017-04-29T02:28:57.365Z,0
2017-04-29T02:30:19.866Z,0
2017-04-29T02:31:42.013Z,0
2017-04-29T02:33:04.153Z,0
2017-04-29T02:34:25.335Z,0
2017-04-29T02:35:47.415Z,0
2017-04-29T02:37:09.880Z,0
2017-04-29T02:38:31.397Z,0
2017-04-29T02:39:53.857Z,0
2017-04-29T02:41:15.721Z,0
2017-04-29T02:42:37.279Z,0
2017-04-29T02:43:58.815Z,0
2017-04-29T02:45:20.649Z,0
2017-04-29T02:46:42.129Z,0
2017-04-29T02:48:04.058Z,0
2017-04-29T02:49:25.556Z,0
2017-04-29T02:50:47.721Z,0
2017-04-29T02:52:09.899Z,0
2017-04-29T02:53:31.079Z,0
2017-04-29T02:54:52.607Z,0
2017-04-29T02:56:14.149Z,0
2017-04-29T02:57:36.325Z,0
2017-04-29T02:58:58.608Z,0
2017-04-29T03:00:20.159Z,0
2017-04-29T03:01:41.667Z,0
2017-04-29T03:03:03.437Z,0
2017-04-29T03:04:24.992Z,0
2017-04-29T03:05:46.838Z,0
2017-04-29T03:07:08.654Z,0
2017-04-29T03:08:30.089Z,0
2017-04-29T03:09:52.240Z,0
2017-04-29T03:11:14.369Z,0
2017-04-29T03:12:36.187Z,0
2017-04-29T03:13:58.709Z,4
2017-04-29T03:15:19.893Z,4
2017-04-29T03:16:41.715Z,0
2017-04-29T03:18:03.544Z,4
2017-04-29T03:19:25.708Z,8
2017-04-29T03:20:47.837Z,4
2017-04-29T03:22:09.647Z,4
2017-04-29T03:23:31.173Z,8
2017-04-29T03:24:53.306Z,12
2017-04-29T03:26:15.438Z,12
2017-04-29T03:27:36.973Z,16
2017-04-29T03:28:58.499Z,16
2017-04-29T03:30:20.270Z,20
2017-04-29T03:31:42.128Z,24
2017-04-29T03:33:04.088Z,32
2017-04-29T03:34:25.908Z,40
2017-04-29T03:35:48.039Z,48
2017-04-29T03:37:09.618Z,56
2017-04-29T03:38:31.166Z,64
2017-04-29T03:39:53.006Z,76
2017-04-29T03:41:15.139Z,92
2017-04-29T03:42:36.325Z,108
2017-04-29T03:43:58.168Z,128
2017-04-29T03:45:20.178Z,148
2017-04-29T03:46:42.349Z,172
2017-04-29T03:48:04.177Z,196
2017-04-29T03:49:26.321Z,224
2017-04-29T03:50:48.803Z,260
2017-04-29T03:52:10.578Z,292
2017-04-29T03:53:32.758Z,328
2017-04-29T03:54:54.601Z,372
2017-04-29T03:56:16.138Z,412
2017-04-29T03:57:39.058Z,456
2017-04-29T03:59:01.002Z,508
2017-04-29T04:00:22.947Z,560
2017-04-29T04:01:44.807Z,608
2017-04-29T04:03:07.188Z,668
2017-04-29T04:04:29.130Z,728
2017-04-29T04:05:50.647Z,784
2017-04-29T04:07:12.499Z,848
2017-04-29T04:08:34.246Z,912
2017-04-29T04:09:56.719Z,972
2017-04-29T04:11:18.871Z,1040
2017-04-29T04:12:40.997Z,1108
2017-04-29T04:14:03.508Z,1184
2017-04-29T04:15:25.030Z,1256
2017-04-29T04:16:46.857Z,1332
2017-04-29T04:18:08.679Z,1408
2017-04-29T04:19:30.951Z,1496
2017-04-29T04:20:53.193Z,1592
2017-04-29T04:22:14.695Z,1712
2017-04-29T04:23:37.168Z,1812
2017-04-29T04:24:59.242Z,1916
2017-04-29T04:26:21.114Z,2008
2017-04-29T04:27:43.258Z,2104
2017-04-29T04:29:04.768Z,2212
2017-04-29T04:30:26.855Z,2324
2017-04-29T04:31:48.365Z,2460
2017-04-29T04:33:10.503Z,2648
2017-04-29T04:34:32.696Z,2936
2017-04-29T04:35:54.899Z,3304
2017-04-29T04:37:16.752Z,3652
2017-04-29T04:38:38.685Z,3948
2017-04-29T04:40:00.541Z,4224
2017-04-29T04:41:22.928Z,4524
2017-04-29T04:42:44.111Z,4720
2017-04-29T04:44:06.258Z,4880
2017-04-29T04:45:27.845Z,4976
2017-04-29T04:46:49.377Z,4844
2017-04-29T04:48:11.520Z,4600
2017-04-29T04:49:33.361Z,4380
2017-04-29T04:50:55.004Z,4184
2017-04-29T04:52:17.126Z,4108
2017-04-29T04:53:39.278Z,4112
2017-04-29T04:55:01.109Z,4104
2017-04-29T04:56:23.589Z,4168
2017-04-29T04:57:46.403Z,4296
2017-04-29T04:59:07.742Z,4524
2017-04-29T05:00:29.988Z,4812
2017-04-29T05:01:51.822Z,5116
2017-04-29T05:03:13.699Z,5376
2017-04-29T05:04:35.867Z,5508
2017-04-29T05:05:57.067Z,5684
2017-04-29T05:07:18.903Z,6040
2017-04-29T05:08:41.309Z,6328
2017-04-29T05:10:03.557Z,7012
2017-04-29T05:11:25.455Z,7368
2017-04-29T05:12:46.987Z,8964
2017-04-29T05:14:09.070Z,9500
2017-04-29T05:15:30.718Z,9608
2017-04-29T05:16:52.237Z,11332
2017-04-29T05:18:14.090Z,14976
2017-04-29T05:19:36.498Z,24480
2017-04-29T05:20:58.628Z,27168
2017-04-29T05:22:21.018Z,26624
2017-04-29T05:23:43.159Z,30208
2017-04-29T05:25:05.247Z,30176
2017-04-29T05:26:27.137Z,30656
2017-04-29T05:27:48.651Z,30976
2017-04-29T05:29:10.868Z,31168
2017-04-29T05:30:33.324Z,32192
2017-04-29T05:31:55.288Z,12708
2017-04-29T05:33:17.797Z,10288
2017-04-29T05:34:39.995Z,30496
2017-04-29T05:36:02.766Z,34240
2017-04-29T05:37:25.011Z,36608
2017-04-29T05:38:47.169Z,36928
2017-04-29T05:40:08.391Z,37376
2017-04-29T05:41:31.021Z,41472
2017-04-29T05:42:53.277Z,44064
2017-04-29T05:44:14.489Z,47424
2017-04-29T05:45:36.437Z,50624
2017-04-29T05:46:58.379Z,51040
2017-04-29T05:48:20.297Z,39456
2017-04-29T05:49:42.127Z,15520
2017-04-29T05:51:03.649Z,14244
2017-04-29T05:52:25.517Z,12464
2017-04-29T05:53:47.361Z,11872
2017-04-29T05:55:09.507Z,11816
2017-04-29T05:56:31.080Z,11904
2017-04-29T05:57:53.607Z,11936
2017-04-29T05:59:15.756Z,11604
2017-04-29T06:00:38.375Z,11036
2017-04-29T06:01:59.944Z,10532
2017-04-29T06:03:22.187Z,15092
2017-04-29T06:04:44.066Z,15712
2017-04-29T06:06:06.268Z,16064
2017-04-29T06:07:28.240Z,16896
2017-04-29T06:08:50.023Z,19104
2017-04-29T06:10:12.181Z,38080
2017-04-29T06:11:34.073Z,14072
2017-04-29T06:12:55.920Z,13116
2017-04-29T06:14:18.449Z,11772
2017-04-29T06:15:40.658Z,13732
2017-04-29T06:17:03.188Z,11948
2017-04-29T06:18:25.362Z,12360
2017-04-29T06:19:47.137Z,12600
2017-04-29T06:21:08.987Z,12428
2017-04-29T06:22:30.887Z,12076
2017-04-29T06:23:53.038Z,12212
2017-04-29T06:25:15.668Z,12192
2017-04-29T06:26:38.146Z,12104
2017-04-29T06:28:00.176Z,11828
2017-04-29T06:29:22.398Z,11500
2017-04-29T06:30:44.485Z,11588
2017-04-29T06:32:06.328Z,11608
2017-04-29T06:33:28.548Z,11608
2017-04-29T06:34:49.737Z,11264
2017-04-29T06:36:12.126Z,11452
2017-04-29T06:37:33.649Z,11204
2017-04-29T06:38:57.097Z,11672
2017-04-29T06:40:18.928Z,11980
2017-04-29T06:41:42.022Z,11720
2017-04-29T06:43:04.070Z,11300
2017-04-29T06:44:26.258Z,10812
2017-04-29T06:45:48.464Z,10116
2017-04-29T06:47:10.974Z,9716
2017-04-29T06:48:33.460Z,10988
2017-04-29T06:49:56.058Z,18720
2017-04-29T06:51:18.265Z,31776
2017-04-29T06:52:40.856Z,64576
2017-04-29T06:54:02.378Z,67200
2017-04-29T06:55:24.855Z,66592
2017-04-29T06:56:46.787Z,66944
2017-04-29T06:58:09.268Z,49824
2017-04-29T06:59:31.747Z,27232
2017-04-29T07:00:53.262Z,13600
2017-04-29T07:02:15.417Z,18560
2017-04-29T07:03:37.038Z,44448
2017-04-29T07:04:59.250Z,42400
2017-04-29T07:06:21.509Z,23264
2017-04-29T07:07:43.855Z,27328
2017-04-29T07:09:06.361Z,27968
2017-04-29T07:10:28.193Z,28672
2017-04-29T07:11:50.137Z,30080
2017-04-29T07:13:11.999Z,32064
2017-04-29T07:14:34.466Z,33216
2017-04-29T07:15:56.699Z,25504
2017-04-29T07:17:18.664Z,31168
2017-04-29T07:18:40.548Z,23712
2017-04-29T07:20:02.970Z,24480
2017-04-29T07:21:24.587Z,24608
2017-04-29T07:22:46.768Z,24480
2017-04-29T07:24:08.687Z,25344
2017-04-29T07:25:30.978Z,25920
2017-04-29T07:26:53.420Z,25696
2017-04-29T07:28:15.286Z,23168
2017-04-29T07:29:37.594Z,22848
2017-04-29T07:31:00.692Z,22432
2017-04-29T07:32:22.612Z,21984
2017-04-29T07:33:44.502Z,21472
2017-04-29T07:35:06.673Z,20384
2017-04-29T07:36:29.649Z,20032
2017-04-29T07:37:51.897Z,24288
2017-04-29T07:39:13.521Z,25536
2017-04-29T07:40:35.108Z,24160
2017-04-29T07:41:57.688Z,25952
2017-04-29T07:43:19.848Z,22880
2017-04-29T07:44:41.728Z,24832
2017-04-29T07:46:03.573Z,24512
2017-04-29T07:47:25.756Z,21888
2017-04-29T07:48:47.932Z,18464
2017-04-29T07:50:09.469Z,17088
2017-04-29T07:51:31.635Z,16768
2017-04-29T07:52:53.192Z,16128
2017-04-29T07:54:15.356Z,15196
2017-04-29T07:55:37.519Z,14848
2017-04-29T07:56:59.677Z,15084
2017-04-29T07:58:22.098Z,15512
2017-04-29T07:59:43.642Z,16640
2017-04-29T08:01:06.136Z,18336
2017-04-29T08:02:28.300Z,19360
2017-04-29T08:03:50.779Z,19392
2017-04-29T08:05:44.698Z,16864
2017-04-29T08:07:06.867Z,15420
2017-04-29T08:08:29.339Z,14812
2017-04-29T08:09:51.807Z,15912
2017-04-29T08:11:13.963Z,15784
2017-04-29T08:12:35.827Z,15940
2017-04-29T08:13:57.728Z,17248
2017-04-29T08:15:19.995Z,17824
2017-04-29T08:16:41.865Z,17504
2017-04-29T08:18:04.556Z,16328
2017-04-29T08:19:27.331Z,15232
2017-04-29T08:20:48.860Z,14260
2017-04-29T08:22:11.276Z,13976
2017-04-29T08:23:33.456Z,14188
2017-04-29T08:24:55.991Z,13684
2017-04-29T08:26:17.847Z,12196
2017-04-29T08:27:39.433Z,11052
2017-04-29T08:29:01.814Z,9776
2017-04-29T08:30:24.239Z,9420
2017-04-29T08:31:46.697Z,8796
2017-04-29T08:33:08.892Z,8264
2017-04-29T08:34:30.247Z,7760
2017-04-29T08:35:51.588Z,7840
2017-04-29T08:37:14.107Z,8176
2017-04-29T08:38:36.329Z,8748
2017-04-29T08:39:58.596Z,8560
2017-04-29T08:41:20.686Z,8352
2017-04-29T08:42:42.565Z,11044
2017-04-29T08:44:04.403Z,11596
2017-04-29T08:45:26.670Z,12184
2017-04-29T08:46:48.800Z,14912
2017-04-29T08:48:11.318Z,16640
2017-04-29T08:49:34.067Z,17088
2017-04-29T08:50:56.222Z,16312
2017-04-29T08:52:18.861Z,14460
2017-04-29T08:53:41.026Z,12524
2017-04-29T08:55:02.597Z,12328
2017-04-29T08:56:24.767Z,16020
2017-04-29T08:57:47.347Z,17184
2017-04-29T08:59:08.979Z,13648
2017-04-29T09:00:30.818Z,12608
2017-04-29T09:01:53.576Z,13184
2017-04-29T09:03:16.118Z,15556
2017-04-29T09:04:37.989Z,21248
2017-04-29T09:06:00.506Z,21888
2017-04-29T09:07:22.028Z,24224
2017-04-29T09:08:44.575Z,24896
2017-04-29T09:10:06.795Z,22496
2017-04-29T09:11:28.662Z,20864
2017-04-29T09:12:51.188Z,19296
2017-04-29T09:14:13.964Z,16960
2017-04-29T09:15:35.844Z,15600
2017-04-29T09:16:57.736Z,15240
2017-04-29T09:18:19.895Z,15336
2017-04-29T09:19:42.338Z,15528
2017-04-29T09:21:04.513Z,16160
2017-04-29T09:22:26.678Z,17152
2017-04-29T09:23:48.206Z,18240
2017-04-29T09:25:10.683Z,19744
2017-04-29T09:26:32.576Z,20800
2017-04-29T09:27:53.771Z,20448
2017-04-29T09:29:15.715Z,20544
2017-04-29T09:30:37.818Z,18976
2017-04-29T09:32:00.116Z,17568
2017-04-29T09:33:22.599Z,15656
2017-04-29T09:34:44.962Z,13744
2017-04-29T09:36:39.461Z,11744
2017-04-29T09:38:01.942Z,12264
2017-04-29T09:39:24.476Z,10188
2017-04-29T09:40:46.626Z,10136
2017-04-29T09:42:08.798Z,10112
2017-04-29T09:43:31.290Z,11132
2017-04-29T09:44:53.158Z,13736
2017-04-29T09:46:15.661Z,15988
2017-04-29T09:47:37.822Z,16576
2017-04-29T09:49:00.348Z,15452
2017-04-29T09:50:22.516Z,15008
2017-04-29T09:51:44.606Z,14532
2017-04-29T09:53:06.876Z,14464
2017-04-29T09:54:29.148Z,13940
2017-04-29T09:55:51.016Z,15104
2017-04-29T09:57:12.797Z,16736
2017-04-29T09:58:35.268Z,16160
2017-04-29T09:59:57.437Z,14832
2017-04-29T10:01:19.914Z,14944
2017-04-29T10:02:42.851Z,13696
2017-04-29T10:04:04.999Z,10048
2017-04-29T10:05:26.676Z,6692
2017-04-29T10:06:49.191Z,4260
2017-04-29T10:08:11.917Z,3124
2017-04-29T10:09:34.406Z,3280
2017-04-29T10:10:56.911Z,3900
2017-04-29T10:12:18.469Z,4272
2017-04-29T10:13:40.711Z,3932
2017-04-29T10:15:03.028Z,3388
2017-04-29T10:16:25.617Z,3292
2017-04-29T10:17:48.108Z,3764
2017-04-29T10:19:10.516Z,5260
2017-04-29T10:20:32.167Z,7304
2017-04-29T10:21:54.652Z,9768
2017-04-29T10:23:17.138Z,11800
2017-04-29T10:24:38.932Z,13416
2017-04-29T10:26:01.107Z,14596
2017-04-29T10:27:23.327Z,15036
2017-04-29T10:28:45.556Z,14984
2017-04-29T10:30:08.275Z,15324
2017-04-29T10:31:30.455Z,15480
2017-04-29T10:32:52.596Z,14248
2017-04-29T10:34:14.125Z,12112
2017-04-29T10:35:36.602Z,10172
2017-04-29T10:36:58.446Z,9400
2017-04-29T10:38:20.319Z,9708
2017-04-29T10:39:42.148Z,10900
2017-04-29T10:41:04.547Z,12720
2017-04-29T10:42:26.449Z,14700
2017-04-29T10:43:48.619Z,16640
2017-04-29T10:45:10.904Z,18176
2017-04-29T10:46:33.208Z,19392
2017-04-29T10:47:55.773Z,20000
2017-04-29T10:49:17.599Z,20192
2017-04-29T10:50:39.434Z,19776
2017-04-29T10:52:01.534Z,18816
2017-04-29T10:53:23.871Z,17376
2017-04-29T10:54:46.018Z,16012
2017-04-29T10:56:08.260Z,14420
2017-04-29T10:57:32.597Z,11436
2017-04-29T10:58:54.758Z,9616
2017-04-29T11:00:16.999Z,8792
2017-04-29T11:01:39.164Z,8556
2017-04-29T11:03:03.156Z,8988
2017-04-29T11:04:25.738Z,10464
2017-04-29T11:05:48.010Z,12932
2017-04-29T11:07:10.156Z,15820
2017-04-29T11:08:32.615Z,17792
2017-04-29T11:09:55.087Z,18912
2017-04-29T11:11:17.592Z,20256
2017-04-29T11:12:39.466Z,20544
2017-04-29T11:14:02.247Z,20224
2017-04-29T11:15:24.427Z,19424
2017-04-29T11:16:46.904Z,19904
2017-04-29T11:18:08.764Z,19776
2017-04-29T11:19:32.781Z,20064
2017-04-29T11:20:54.954Z,20512
2017-04-29T11:22:16.855Z,20640
2017-04-29T11:23:39.347Z,21408
2017-04-29T11:25:02.197Z,18976
2017-04-29T11:26:24.062Z,17664
2017-04-29T11:27:46.232Z,17184
2017-04-29T11:29:08.412Z,17216
2017-04-29T11:30:31.797Z,16188
2017-04-29T11:31:54.029Z,14532
2017-04-29T11:33:16.270Z,12976
2017-04-29T11:34:38.488Z,12312
2017-04-29T11:36:01.047Z,11200
2017-04-29T11:37:23.227Z,11884
2017-04-29T11:38:45.763Z,13232
2017-04-29T11:40:08.406Z,13676
2017-04-29T11:41:30.696Z,13900
2017-04-29T11:42:52.585Z,13156
2017-04-29T11:44:14.755Z,13988
2017-04-29T11:45:36.908Z,14324
2017-04-29T11:46:59.754Z,15496
2017-04-29T11:48:22.267Z,16864
2017-04-29T11:49:44.235Z,17088
2017-04-29T11:51:06.710Z,16144
2017-04-29T11:52:29.200Z,15192
2017-04-29T11:53:51.375Z,14660
2017-04-29T11:55:13.549Z,14624
2017-04-29T11:56:36.074Z,15000
2017-04-29T11:57:58.857Z,15696
2017-04-29T11:59:20.087Z,16704
2017-04-29T12:00:41.956Z,17216
2017-04-29T12:02:03.791Z,17152
2017-04-29T12:03:26.591Z,16608
2017-04-29T12:04:48.817Z,16288
2017-04-29T12:06:10.978Z,16480
2017-04-29T12:07:33.168Z,17088
2017-04-29T12:08:55.708Z,17760
2017-04-29T12:10:17.919Z,18688
2017-04-29T12:11:40.147Z,19072
2017-04-29T12:13:02.026Z,18880
2017-04-29T12:14:24.811Z,18752
2017-04-29T12:15:46.367Z,18688
2017-04-29T12:17:08.218Z,18304
2017-04-29T12:18:30.109Z,18176
2017-04-29T12:19:52.531Z,18048
2017-04-29T12:21:14.379Z,17888
2017-04-29T12:22:36.299Z,18112
2017-04-29T12:23:57.852Z,17888
2017-04-29T12:25:20.400Z,19072
2017-04-29T12:26:42.557Z,19552
2017-04-29T12:28:04.847Z,19264
2017-04-29T12:29:26.459Z,19552
2017-04-29T12:30:48.928Z,19936
2017-04-29T12:32:11.196Z,20320
2017-04-29T12:33:33.066Z,20416
2017-04-29T12:34:54.928Z,20448
2017-04-29T12:36:17.758Z,20416
2017-04-29T12:37:40.041Z,20320
2017-04-29T12:39:02.539Z,19776
2017-04-29T12:40:24.738Z,18624
2017-04-29T12:41:47.630Z,17088
2017-04-29T12:43:09.180Z,15432
2017-04-29T12:44:31.687Z,13988
2017-04-29T12:45:54.196Z,12888
2017-04-29T12:47:16.628Z,12420
2017-04-29T12:48:38.482Z,11712
2017-04-29T12:50:01.101Z,10644
2017-04-29T12:51:22.336Z,10564
2017-04-29T12:52:46.325Z,10592
2017-04-29T12:54:08.822Z,10612
2017-04-29T12:55:31.005Z,11232
2017-04-29T12:56:52.849Z,12092
2017-04-29T12:58:15.365Z,12776
2017-04-29T12:59:37.435Z,13612
2017-04-29T13:00:59.309Z,14920
2017-04-29T13:02:21.865Z,14584
2017-04-29T13:03:44.675Z,14320
2017-04-29T13:05:06.638Z,13620
2017-04-29T13:06:29.119Z,12784
2017-04-29T13:07:51.753Z,11428
2017-04-29T13:09:14.268Z,10012
2017-04-29T13:10:36.438Z,8740
2017-04-29T13:11:58.297Z,7768
2017-04-29T13:13:20.776Z,7404
2017-04-29T13:14:43.067Z,7448
2017-04-29T13:16:04.988Z,8056
2017-04-29T13:17:26.930Z,8272
2017-04-29T13:18:49.438Z,8620
2017-04-29T13:20:11.589Z,9052
2017-04-29T13:21:33.753Z,9584
2017-04-29T13:22:55.631Z,9980
2017-04-29T13:24:18.206Z,10548
2017-04-29T13:25:40.601Z,11304
2017-04-29T13:27:02.781Z,12080
2017-04-29T13:28:24.203Z,13168
2017-04-29T13:29:45.751Z,14420
2017-04-29T13:31:08.266Z,14584
2017-04-29T13:32:29.815Z,15296
2017-04-29T13:33:51.106Z,16672
2017-04-29T13:35:13.595Z,18464
2017-04-29T13:36:36.419Z,18752
2017-04-29T13:37:58.998Z,18944
2017-04-29T13:39:21.467Z,18496
2017-04-29T13:40:43.907Z,17696
2017-04-29T13:42:06.276Z,16448
2017-04-29T13:43:28.494Z,15020
2017-04-29T13:44:50.061Z,14976
2017-04-29T13:46:11.936Z,14996
2017-04-29T13:47:34.038Z,15048
2017-04-29T13:48:56.197Z,14108
2017-04-29T13:50:18.369Z,13892
2017-04-29T13:51:40.225Z,13860
2017-04-29T13:53:02.726Z,14080
2017-04-29T13:54:25.237Z,14652
2017-04-29T13:55:47.736Z,14008
2017-04-29T13:57:09.969Z,13588
2017-04-29T13:58:32.397Z,13700
2017-04-29T13:59:54.266Z,14264
2017-04-29T14:01:15.816Z,14492
2017-04-29T14:02:37.997Z,13788
2017-04-29T14:04:00.887Z,14460
2017-04-29T14:05:22.748Z,14680
2017-04-29T14:06:44.262Z,14908
2017-04-29T14:08:06.445Z,15380
2017-04-29T14:09:28.983Z,14248
2017-04-29T14:10:51.479Z,14040
2017-04-29T14:12:13.749Z,13120
2017-04-29T14:13:35.930Z,12424
2017-04-29T14:14:58.643Z,11436
2017-04-29T14:16:20.559Z,11884
2017-04-29T14:17:43.051Z,11716
2017-04-29T14:19:04.910Z,11672
2017-04-29T14:20:27.498Z,11640
2017-04-29T14:21:49.185Z,11016
2017-04-29T14:23:10.407Z,11372
2017-04-29T14:24:32.897Z,11556
2017-04-29T14:25:55.039Z,11588
2017-04-29T14:27:17.247Z,11532
2017-04-29T14:28:39.418Z,11732
2017-04-29T14:30:01.587Z,11992
2017-04-29T14:31:24.269Z,12204
2017-04-29T14:32:46.437Z,12516
2017-04-29T14:34:08.623Z,12580
2017-04-29T14:35:30.476Z,12124
2017-04-29T14:36:52.657Z,11812
2017-04-29T14:38:14.191Z,11392
2017-04-29T14:39:36.082Z,11324
2017-04-29T14:40:58.341Z,11728
2017-04-29T14:42:20.593Z,11456
2017-04-29T14:43:43.066Z,10364
2017-04-29T14:45:05.268Z,10608
2017-04-29T14:46:27.449Z,11676
2017-04-29T14:47:49.962Z,11452
2017-04-29T14:49:12.474Z,10684
2017-04-29T14:50:34.675Z,10208
2017-04-29T14:51:56.873Z,9852
2017-04-29T14:53:18.649Z,9408
2017-04-29T14:54:40.499Z,9108
2017-04-29T14:56:02.455Z,9096
2017-04-29T14:57:24.787Z,9488
2017-04-29T14:58:47.387Z,10264
2017-04-29T15:00:09.748Z,10856
2017-04-29T15:01:31.619Z,10320
2017-04-29T15:02:53.950Z,9012
2017-04-29T15:04:16.080Z,7708
2017-04-29T15:05:37.989Z,7308
2017-04-29T15:07:00.534Z,7416
2017-04-29T15:08:21.774Z,7308
2017-04-29T15:09:44.250Z,6948
2017-04-29T15:11:06.441Z,6632
2017-04-29T15:12:28.948Z,5948
2017-04-29T15:13:51.458Z,5944
2017-04-29T15:15:13.977Z,5764
2017-04-29T15:16:36.158Z,5552
2017-04-29T15:17:58.047Z,5536
2017-04-29T15:19:19.946Z,5424
2017-04-29T15:20:41.862Z,5248
2017-04-29T15:22:04.355Z,5316
2017-04-29T15:23:26.549Z,4660
2017-04-29T15:24:48.426Z,4620
2017-04-29T15:26:11.289Z,4556
2017-04-29T15:27:33.872Z,4568
2017-04-29T15:28:56.037Z,4704
2017-04-29T15:30:18.237Z,4908
2017-04-29T15:31:41.056Z,5220
2017-04-29T15:33:03.231Z,5508
2017-04-29T15:34:25.820Z,5572
2017-04-29T15:35:47.985Z,5604
2017-04-29T15:37:10.795Z,6152
2017-04-29T15:38:32.949Z,6184
2017-04-29T15:39:54.530Z,6380
2017-04-29T15:41:16.374Z,6464
2017-04-29T15:42:38.669Z,6448
2017-04-29T15:44:00.953Z,6180
2017-04-29T15:45:23.098Z,5808
2017-04-29T15:46:45.609Z,5556
2017-04-29T15:48:08.331Z,5384
2017-04-29T15:49:30.885Z,5276
2017-04-29T15:50:52.738Z,4728
2017-04-29T15:52:15.248Z,4848
2017-04-29T15:53:38.225Z,5052
2017-04-29T15:55:00.732Z,5004
2017-04-29T15:56:22.596Z,4944
2017-04-29T15:57:45.067Z,4916
2017-04-29T15:59:07.844Z,4920
2017-04-29T16:00:29.696Z,4900
2017-04-29T16:01:51.543Z,4904
2017-04-29T16:03:14.022Z,4916
2017-04-29T16:04:36.438Z,4920
2017-04-29T16:05:58.935Z,4892
2017-04-29T16:07:21.117Z,4868
2017-04-29T16:08:43.923Z,4820
2017-04-29T16:10:06.763Z,4444
2017-04-29T16:11:28.609Z,4768
2017-04-29T16:12:50.778Z,4724
2017-04-29T16:14:12.306Z,4676
2017-04-29T16:15:34.795Z,4648
2017-04-29T16:16:56.688Z,4644
2017-04-29T16:18:18.861Z,4672
2017-04-29T16:19:41.355Z,4636
2017-04-29T16:21:03.564Z,4616
2017-04-29T16:22:25.438Z,4600
2017-04-29T16:23:48.049Z,4584
2017-04-29T16:25:09.908Z,4560
2017-04-29T16:26:32.639Z,4532
2017-04-29T16:27:54.808Z,4512
2017-04-29T16:29:17.293Z,4500
2017-04-29T16:30:39.557Z,4484
2017-04-29T16:32:02.059Z,4464
2017-04-29T16:33:24.262Z,4452
2017-04-29T16:34:46.778Z,4436
2017-04-29T16:36:09.048Z,4408
2017-04-29T16:37:31.297Z,4400
2017-04-29T16:38:53.852Z,4384
2017-04-29T16:40:16.042Z,4348
2017-04-29T16:41:37.914Z,4324
2017-04-29T16:42:59.741Z,4296
2017-04-29T16:44:22.348Z,4276
2017-04-29T16:46:16.518Z,4248
2017-04-29T16:47:38.699Z,4228
2017-04-29T16:49:01.448Z,4208
2017-04-29T16:50:23.059Z,4192
2017-04-29T16:51:45.567Z,4168
2017-04-29T16:53:08.527Z,4152
2017-04-29T16:54:30.725Z,4132
2017-04-29T16:55:53.219Z,4116
2017-04-29T16:57:15.098Z,4088
2017-04-29T16:58:38.128Z,4056
2017-04-29T17:00:00.435Z,4028
2017-04-29T17:01:22.594Z,4004
2017-04-29T17:02:44.440Z,3980
2017-04-29T17:04:06.574Z,3812
2017-04-29T17:05:28.445Z,3796
2017-04-29T17:06:50.921Z,3772
2017-04-29T17:08:13.169Z,3732
2017-04-29T17:09:35.927Z,3704
2017-04-29T17:10:58.418Z,3660
2017-04-29T17:12:20.618Z,3628
2017-04-29T17:13:43.098Z,3604
2017-04-29T17:15:05.491Z,3576
2017-04-29T17:16:27.364Z,3544
2017-04-29T17:17:49.539Z,3520
2017-04-29T17:19:12.094Z,3484
2017-04-29T17:20:34.617Z,3452
2017-04-29T17:21:56.596Z,3424
2017-04-29T17:23:18.767Z,3392
2017-04-29T17:24:41.006Z,3360
2017-04-29T17:26:03.207Z,3332
2017-04-29T17:27:25.693Z,3308
2017-04-29T17:28:47.588Z,3276
2017-04-29T17:30:09.442Z,3240
2017-04-29T17:31:31.567Z,3212
2017-04-29T17:32:53.457Z,3176
2017-04-29T17:34:15.017Z,3136
2017-04-29T17:35:37.563Z,3096
2017-04-29T17:36:59.521Z,3064
2017-04-29T17:38:21.701Z,3024
2017-04-29T17:39:44.206Z,2980
2017-04-29T17:41:06.977Z,2940
2017-04-29T17:42:29.803Z,2900
2017-04-29T17:43:51.670Z,2860
2017-04-29T17:45:14.158Z,2816
2017-04-29T17:46:36.678Z,2780
2017-04-29T17:47:59.083Z,2736
2017-04-29T17:49:21.589Z,2696
2017-04-29T17:50:44.142Z,2652
2017-04-29T17:52:06.036Z,2604
2017-04-29T17:53:28.578Z,2560
2017-04-29T17:54:50.841Z,2508
2017-04-29T17:56:13.343Z,2456
2017-04-29T17:57:35.842Z,2404
2017-04-29T17:58:58.115Z,2356
2017-04-29T18:00:20.683Z,2300
2017-04-29T18:01:43.178Z,2248
2017-04-29T18:03:05.348Z,2200
2017-04-29T18:04:28.149Z,2140
2017-04-29T18:05:50.122Z,2084
2017-04-29T18:07:12.376Z,2032
2017-04-29T18:08:34.897Z,1972
2017-04-29T18:09:57.413Z,1916
2017-04-29T18:11:19.599Z,1852
2017-04-29T18:12:41.875Z,1796
2017-04-29T18:14:03.714Z,1740
2017-04-29T18:15:26.178Z,1676
2017-04-29T18:16:48.404Z,1612
2017-04-29T18:18:10.974Z,1556
2017-04-29T18:19:33.470Z,1492
2017-04-29T18:20:55.717Z,1432